sensor_id;sensor_type;location;lat;lon;timestamp;pressure;altitude;pressure_sealevel;temperature;humidity
72548;BME280;60570;50.848;6.776;2023-07-24T00:00:42;99531.38;;;21.19;59.81
72548;BME280;60570;50.848;6.776;2023-07-24T00:01:43;99534.19;;;21.19;59.94
72548;BME280;60570;50.848;6.776;2023-07-24T00:02:43;99529.75;;;21.18;60.01
72548;BME280;60570;50.848;6.776;2023-07-24T00:03:45;99529.75;;;21.18;59.67
72548;BME280;60570;50.848;6.776;2023-07-24T00:04:45;99526.94;;;21.18;60.15
72548;BME280;60570;50.848;6.776;2023-07-24T00:05:47;99534.19;;;21.19;59.93
72548;BME280;60570;50.848;6.776;2023-07-24T00:06:47;99532.59;;;21.18;60.19
72548;BME280;60570;50.848;6.776;2023-07-24T00:07:49;99531.78;;;21.18;60.12
72548;BME280;60570;50.848;6.776;2023-07-24T00:08:50;99536.66;;;21.17;60.20
72548;BME280;60570;50.848;6.776;2023-07-24T00:09:51;99527.38;;;21.17;59.63
72548;BME280;60570;50.848;6.776;2023-07-24T00:10:52;99533.03;;;21.17;59.84
72548;BME280;60570;50.848;6.776;2023-07-24T00:11:54;99528.19;;;21.17;59.73
72548;BME280;60570;50.848;6.776;2023-07-24T00:12:56;99529.81;;;21.15;60.35
72548;BME280;60570;50.848;6.776;2023-07-24T00:13:57;99527.38;;;21.17;59.76
72548;BME280;60570;50.848;6.776;2023-07-24T00:14:58;99526.56;;;21.16;59.83
72548;BME280;60570;50.848;6.776;2023-07-24T00:16:00;99531.44;;;21.16;60.34
72548;BME280;60570;50.848;6.776;2023-07-24T00:17:00;99525.78;;;21.16;60.58
72548;BME280;60570;50.848;6.776;2023-07-24T00:18:02;99519.34;;;21.15;59.98
72548;BME280;60570;50.848;6.776;2023-07-24T00:19:02;99528.63;;;21.16;59.87
72548;BME280;60570;50.848;6.776;2023-07-24T00:20:05;99515.69;;;21.15;59.63
72548;BME280;60570;50.848;6.776;2023-07-24T00:21:06;99516.94;;;21.14;59.97
72548;BME280;60570;50.848;6.776;2023-07-24T00:22:07;99514.91;;;21.14;60.46
72548;BME280;60570;50.848;6.776;2023-07-24T00:23:08;99512.06;;;21.14;59.79
72548;BME280;60570;50.848;6.776;2023-07-24T00:24:09;99517.34;;;21.12;60.33
72548;BME280;60570;50.848;6.776;2023-07-24T00:25:10;99516.13;;;21.13;60.33
72548;BME280;60570;50.848;6.776;2023-07-24T00:26:11;99509.69;;;21.13;60.48
72548;BME280;60570;50.848;6.776;2023-07-24T00:27:12;99517.34;;;21.12;60.31
72548;BME280;60570;50.848;6.776;2023-07-24T00:28:15;99512.94;;;21.11;60.23
72548;BME280;60570;50.848;6.776;2023-07-24T00:29:16;99506.06;;;21.12;60.71
72548;BME280;60570;50.848;6.776;2023-07-24T00:30:17;99506.50;;;21.11;60.42
72548;BME280;60570;50.848;6.776;2023-07-24T00:31:18;99506.06;;;21.12;60.34
72548;BME280;60570;50.848;6.776;2023-07-24T00:32:19;99504.09;;;21.09;60.20
72548;BME280;60570;50.848;6.776;2023-07-24T00:33:20;99500.84;;;21.11;60.09
72548;BME280;60570;50.848;6.776;2023-07-24T00:34:22;99503.28;;;21.09;60.23
72548;BME280;60570;50.848;6.776;2023-07-24T00:35:22;99506.13;;;21.09;60.28
72548;BME280;60570;50.848;6.776;2023-07-24T00:36:24;99500.09;;;21.07;60.43
72548;BME280;60570;50.848;6.776;2023-07-24T00:37:24;99505.75;;;21.07;60.60
72548;BME280;60570;50.848;6.776;2023-07-24T00:38:26;99505.75;;;21.07;60.28
72548;BME280;60570;50.848;6.776;2023-07-24T00:39:26;99499.28;;;21.06;60.22
72548;BME280;60570;50.848;6.776;2023-07-24T00:40:29;99500.09;;;21.07;60.47
72548;BME280;60570;50.848;6.776;2023-07-24T00:41:30;99499.66;;;21.08;60.31
72548;BME280;60570;50.848;6.776;2023-07-24T00:42:31;99500.09;;;21.07;59.92
72548;BME280;60570;50.848;6.776;2023-07-24T00:43:33;99500.91;;;21.07;60.67
72548;BME280;60570;50.848;6.776;2023-07-24T00:44:35;99495.69;;;21.06;60.42
72548;BME280;60570;50.848;6.776;2023-07-24T00:45:36;99501.34;;;21.06;60.18
72548;BME280;60570;50.848;6.776;2023-07-24T00:46:38;99503.38;;;21.05;60.36
72548;BME280;60570;50.848;6.776;2023-07-24T00:47:38;99503.81;;;21.04;60.43
72548;BME280;60570;50.848;6.776;2023-07-24T00:48:40;99495.31;;;21.04;60.51
72548;BME280;60570;50.848;6.776;2023-07-24T00:49:40;99496.53;;;21.03;59.99
72548;BME280;60570;50.848;6.776;2023-07-24T00:50:42;99496.09;;;21.04;60.18
72548;BME280;60570;50.848;6.776;2023-07-24T00:51:43;99494.53;;;21.03;60.00
72548;BME280;60570;50.848;6.776;2023-07-24T00:52:45;99493.72;;;21.03;60.56
72548;BME280;60570;50.848;6.776;2023-07-24T00:53:47;99499.38;;;21.03;60.06
72548;BME280;60570;50.848;6.776;2023-07-24T00:54:48;99496.53;;;21.03;60.52
72548;BME280;60570;50.848;6.776;2023-07-24T00:55:49;99498.59;;;21.02;59.86
72548;BME280;60570;50.848;6.776;2023-07-24T00:56:51;99482.41;;;21.03;59.81
72548;BME280;60570;50.848;6.776;2023-07-24T00:57:51;99485.25;;;21.03;60.71
72548;BME280;60570;50.848;6.776;2023-07-24T00:58:54;99482.06;;;21.01;60.16
72548;BME280;60570;50.848;6.776;2023-07-24T00:59:59;99478.81;;;21.02;59.98
72548;BME280;60570;50.848;6.776;2023-07-24T01:01:00;99482.06;;;21.01;60.40
72548;BME280;60570;50.848;6.776;2023-07-24T01:02:01;99489.31;;;21.02;60.75
72548;BME280;60570;50.848;6.776;2023-07-24T01:03:03;99482.06;;;21.01;60.27
72548;BME280;60570;50.848;6.776;2023-07-24T01:04:03;99473.19;;;20.99;60.41
72548;BME280;60570;50.848;6.776;2023-07-24T01:05:07;99469.16;;;21.00;60.91
72548;BME280;60570;50.848;6.776;2023-07-24T01:06:08;99471.97;;;21.00;60.37
72548;BME280;60570;50.848;6.776;2023-07-24T01:07:09;99469.59;;;20.98;60.66
72548;BME280;60570;50.848;6.776;2023-07-24T01:08:10;99461.09;;;20.98;60.07
72548;BME280;60570;50.848;6.776;2023-07-24T01:09:11;99466.75;;;20.98;60.83
72548;BME280;60570;50.848;6.776;2023-07-24T01:10:12;99459.50;;;20.97;61.00
72548;BME280;60570;50.848;6.776;2023-07-24T01:11:15;99465.16;;;20.97;60.61
72548;BME280;60570;50.848;6.776;2023-07-24T01:12:18;99462.31;;;20.97;60.16
72548;BME280;60570;50.848;6.776;2023-07-24T01:13:22;99463.56;;;20.96;59.95
72548;BME280;60570;50.848;6.776;2023-07-24T01:14:26;99454.28;;;20.96;60.57
72548;BME280;60570;50.848;6.776;2023-07-24T01:15:31;99461.97;;;20.95;60.44
72548;BME280;60570;50.848;6.776;2023-07-24T01:16:33;99455.09;;;20.96;60.36
72548;BME280;60570;50.848;6.776;2023-07-24T01:17:38;99451.47;;;20.96;60.33
72548;BME280;60570;50.848;6.776;2023-07-24T01:18:39;99452.28;;;20.96;59.96
72548;BME280;60570;50.848;6.776;2023-07-24T01:19:42;99445.81;;;20.96;60.36
72548;BME280;60570;50.848;6.776;2023-07-24T01:20:43;99442.63;;;20.94;60.84
72548;BME280;60570;50.848;6.776;2023-07-24T01:21:52;99437.78;;;20.94;60.17
72548;BME280;60570;50.848;6.776;2023-07-24T01:23:04;99439.00;;;20.93;60.47
72548;BME280;60570;50.848;6.776;2023-07-24T01:24:10;99440.59;;;20.94;60.60
72548;BME280;60570;50.848;6.776;2023-07-24T01:25:18;99442.63;;;20.94;60.54
72548;BME280;60570;50.848;6.776;2023-07-24T01:26:21;99438.19;;;20.93;60.88
72548;BME280;60570;50.848;6.776;2023-07-24T01:27:24;99443.06;;;20.92;60.63
72548;BME280;60570;50.848;6.776;2023-07-24T01:28:25;99439.44;;;20.92;60.55
72548;BME280;60570;50.848;6.776;2023-07-24T01:29:29;99437.41;;;20.92;60.45
72548;BME280;60570;50.848;6.776;2023-07-24T01:30:30;99423.28;;;20.92;60.06
72548;BME280;60570;50.848;6.776;2023-07-24T01:31:31;99421.25;;;20.93;60.56
72548;BME280;60570;50.848;6.776;2023-07-24T01:32:32;99424.06;;;20.93;60.60
72548;BME280;60570;50.848;6.776;2023-07-24T01:33:33;99424.50;;;20.91;60.34
72548;BME280;60570;50.848;6.776;2023-07-24T01:34:35;99422.94;;;20.90;60.00
72548;BME280;60570;50.848;6.776;2023-07-24T01:35:36;99428.13;;;20.92;60.39
72548;BME280;60570;50.848;6.776;2023-07-24T01:36:39;99428.13;;;20.92;60.32
72548;BME280;60570;50.848;6.776;2023-07-24T01:37:39;99437.41;;;20.92;60.30
72548;BME280;60570;50.848;6.776;2023-07-24T01:38:43;99430.16;;;20.91;60.07
72548;BME280;60570;50.848;6.776;2023-07-24T01:39:44;99435.00;;;20.91;59.68
72548;BME280;60570;50.848;6.776;2023-07-24T01:40:45;99431.75;;;20.92;60.65
72548;BME280;60570;50.848;6.776;2023-07-24T01:41:47;99429.34;;;20.91;60.54
72548;BME280;60570;50.848;6.776;2023-07-24T01:42:49;99429.34;;;20.91;60.64
72548;BME280;60570;50.848;6.776;2023-07-24T01:43:50;99426.97;;;20.89;60.43
72548;BME280;60570;50.848;6.776;2023-07-24T01:44:51;99433.84;;;20.88;60.81
72548;BME280;60570;50.848;6.776;2023-07-24T01:45:52;99423.00;;;20.87;59.99
72548;BME280;60570;50.848;6.776;2023-07-24T01:46:54;99428.97;;;20.89;60.41
72548;BME280;60570;50.848;6.776;2023-07-24T01:47:54;99426.97;;;20.89;60.34
72548;BME280;60570;50.848;6.776;2023-07-24T01:48:56;99431.03;;;20.88;60.42
72548;BME280;60570;50.848;6.776;2023-07-24T01:49:56;99431.81;;;20.89;60.02
72548;BME280;60570;50.848;6.776;2023-07-24T01:50:58;99429.78;;;20.89;60.47
72548;BME280;60570;50.848;6.776;2023-07-24T01:51:58;99435.88;;;20.88;60.59
72548;BME280;60570;50.848;6.776;2023-07-24T01:53:00;99433.84;;;20.88;60.01
72548;BME280;60570;50.848;6.776;2023-07-24T01:54:00;99435.06;;;20.87;60.22
72548;BME280;60570;50.848;6.776;2023-07-24T01:55:01;99429.41;;;20.87;60.67
72548;BME280;60570;50.848;6.776;2023-07-24T01:56:03;99431.47;;;20.87;59.95
72548;BME280;60570;50.848;6.776;2023-07-24T01:57:05;99431.47;;;20.87;60.18
72548;BME280;60570;50.848;6.776;2023-07-24T01:58:07;99427.41;;;20.88;60.29
72548;BME280;60570;50.848;6.776;2023-07-24T01:59:07;99425.81;;;20.87;60.76
72548;BME280;60570;50.848;6.776;2023-07-24T02:00:09;99427.84;;;20.86;60.09
72548;BME280;60570;50.848;6.776;2023-07-24T02:01:10;99425.81;;;20.87;60.28
72548;BME280;60570;50.848;6.776;2023-07-24T02:02:12;99420.59;;;20.85;60.50
72548;BME280;60570;50.848;6.776;2023-07-24T02:03:12;99426.22;;;20.85;60.56
72548;BME280;60570;50.848;6.776;2023-07-24T02:04:14;99416.19;;;20.84;60.52
72548;BME280;60570;50.848;6.776;2023-07-24T02:05:14;99418.19;;;20.84;60.75
72548;BME280;60570;50.848;6.776;2023-07-24T02:06:16;99419.00;;;20.84;60.90
72548;BME280;60570;50.848;6.776;2023-07-24T02:07:16;99423.03;;;20.83;60.41
72548;BME280;60570;50.848;6.776;2023-07-24T02:08:18;99414.56;;;20.83;60.77
72548;BME280;60570;50.848;6.776;2023-07-24T02:09:18;99416.63;;;20.83;60.54
72548;BME280;60570;50.848;6.776;2023-07-24T02:10:20;99416.63;;;20.83;60.88
72548;BME280;60570;50.848;6.776;2023-07-24T02:11:20;99407.34;;;20.82;60.59
72548;BME280;60570;50.848;6.776;2023-07-24T02:12:23;99406.09;;;20.83;60.60
72548;BME280;60570;50.848;6.776;2023-07-24T02:13:24;99406.91;;;20.84;60.52
72548;BME280;60570;50.848;6.776;2023-07-24T02:14:25;99402.06;;;20.84;60.20
72548;BME280;60570;50.848;6.776;2023-07-24T02:15:27;99402.50;;;20.83;60.74
72548;BME280;60570;50.848;6.776;2023-07-24T02:16:28;99408.16;;;20.83;60.85
72548;BME280;60570;50.848;6.776;2023-07-24T02:17:29;99402.13;;;20.81;61.13
72548;BME280;60570;50.848;6.776;2023-07-24T02:18:30;99403.34;;;20.80;60.63
72548;BME280;60570;50.848;6.776;2023-07-24T02:19:31;99406.59;;;20.78;61.11
72548;BME280;60570;50.848;6.776;2023-07-24T02:20:32;99410.25;;;20.79;61.35
72548;BME280;60570;50.848;6.776;2023-07-24T02:21:33;99403.34;;;20.80;60.69
72548;BME280;60570;50.848;6.776;2023-07-24T02:22:34;99404.59;;;20.79;61.20
72548;BME280;60570;50.848;6.776;2023-07-24T02:23:35;99402.53;;;20.79;60.62
72548;BME280;60570;50.848;6.776;2023-07-24T02:24:37;99399.72;;;20.79;61.02
72548;BME280;60570;50.848;6.776;2023-07-24T02:25:37;99394.06;;;20.79;61.20
72548;BME280;60570;50.848;6.776;2023-07-24T02:26:39;99405.00;;;20.77;60.97
72548;BME280;60570;50.848;6.776;2023-07-24T02:27:41;99391.31;;;20.76;61.68
72548;BME280;60570;50.848;6.776;2023-07-24T02:28:42;99394.16;;;20.76;61.37
72548;BME280;60570;50.848;6.776;2023-07-24T02:29:43;99392.13;;;20.76;60.85
72548;BME280;60570;50.848;6.776;2023-07-24T02:30:46;99394.50;;;20.78;60.96
72548;BME280;60570;50.848;6.776;2023-07-24T02:31:46;99394.94;;;20.76;61.75
72548;BME280;60570;50.848;6.776;2023-07-24T02:32:48;99396.53;;;20.77;61.24
72548;BME280;60570;50.848;6.776;2023-07-24T02:33:48;99392.13;;;20.76;60.92
72548;BME280;60570;50.848;6.776;2023-07-24T02:34:50;99389.31;;;20.76;60.89
72548;BME280;60570;50.848;6.776;2023-07-24T02:35:51;99382.84;;;20.76;61.67
72548;BME280;60570;50.848;6.776;2023-07-24T02:36:53;99389.31;;;20.76;60.93
72548;BME280;60570;50.848;6.776;2023-07-24T02:37:54;99378.00;;;20.76;60.94
72548;BME280;60570;50.848;6.776;2023-07-24T02:38:55;99378.00;;;20.76;61.35
72548;BME280;60570;50.848;6.776;2023-07-24T02:39:57;99376.41;;;20.75;61.29
72548;BME280;60570;50.848;6.776;2023-07-24T02:40:59;99374.38;;;20.76;61.68
72548;BME280;60570;50.848;6.776;2023-07-24T02:41:59;99355.06;;;20.74;60.92
72548;BME280;60570;50.848;6.776;2023-07-24T02:43:02;99361.50;;;20.75;60.95
72548;BME280;60570;50.848;6.776;2023-07-24T02:44:03;99357.88;;;20.74;61.71
72548;BME280;60570;50.848;6.776;2023-07-24T02:45:04;99342.19;;;20.73;61.55
72548;BME280;60570;50.848;6.776;2023-07-24T02:46:10;99354.69;;;20.72;61.56
72548;BME280;60570;50.848;6.776;2023-07-24T02:47:11;99352.69;;;20.73;61.40
72548;BME280;60570;50.848;6.776;2023-07-24T02:48:12;99350.28;;;20.71;61.11
72548;BME280;60570;50.848;6.776;2023-07-24T02:49:13;99347.47;;;20.71;61.67
72548;BME280;60570;50.848;6.776;2023-07-24T02:50:14;99345.41;;;20.72;61.66
72548;BME280;60570;50.848;6.776;2023-07-24T02:51:15;99345.41;;;20.72;61.14
72548;BME280;60570;50.848;6.776;2023-07-24T02:52:16;99342.59;;;20.72;61.28
72548;BME280;60570;50.848;6.776;2023-07-24T02:53:17;99345.41;;;20.72;61.48
72548;BME280;60570;50.848;6.776;2023-07-24T02:54:18;99342.22;;;20.70;61.29
72548;BME280;60570;50.848;6.776;2023-07-24T02:55:19;99348.25;;;20.72;61.07
72548;BME280;60570;50.848;6.776;2023-07-24T02:56:20;99345.84;;;20.70;61.14
72548;BME280;60570;50.848;6.776;2023-07-24T02:57:21;99351.50;;;20.70;61.44
72548;BME280;60570;50.848;6.776;2023-07-24T02:58:23;99352.31;;;20.71;61.26
72548;BME280;60570;50.848;6.776;2023-07-24T02:59:25;99358.41;;;20.69;61.62
72548;BME280;60570;50.848;6.776;2023-07-24T03:00:25;99355.13;;;20.71;60.81
72548;BME280;60570;50.848;6.776;2023-07-24T03:01:30;99350.69;;;20.70;61.35
72548;BME280;60570;50.848;6.776;2023-07-24T03:02:30;99353.97;;;20.68;61.14
72548;BME280;60570;50.848;6.776;2023-07-24T03:03:32;99355.56;;;20.69;60.91
72548;BME280;60570;50.848;6.776;2023-07-24T03:04:32;99352.75;;;20.69;61.17
72548;BME280;60570;50.848;6.776;2023-07-24T03:05:34;99343.09;;;20.67;61.60
72548;BME280;60570;50.848;6.776;2023-07-24T03:06:35;99340.28;;;20.67;60.89
72548;BME280;60570;50.848;6.776;2023-07-24T03:07:36;99348.75;;;20.67;61.24
72548;BME280;60570;50.848;6.776;2023-07-24T03:08:37;99349.56;;;20.67;61.41
72548;BME280;60570;50.848;6.776;2023-07-24T03:09:38;99344.31;;;20.66;61.38
72548;BME280;60570;50.848;6.776;2023-07-24T03:10:39;99344.31;;;20.66;61.26
72548;BME280;60570;50.848;6.776;2023-07-24T03:11:41;99338.69;;;20.66;61.41
72548;BME280;60570;50.848;6.776;2023-07-24T03:12:41;99339.47;;;20.66;61.05
72548;BME280;60570;50.848;6.776;2023-07-24T03:13:43;99340.72;;;20.65;61.03
72548;BME280;60570;50.848;6.776;2023-07-24T03:14:45;99337.91;;;20.65;61.41
72548;BME280;60570;50.848;6.776;2023-07-24T03:15:51;99337.91;;;20.65;61.19
72548;BME280;60570;50.848;6.776;2023-07-24T03:16:52;99337.09;;;20.65;61.14
72548;BME280;60570;50.848;6.776;2023-07-24T03:17:53;99336.28;;;20.64;61.00
72548;BME280;60570;50.848;6.776;2023-07-24T03:18:54;99339.13;;;20.64;61.24
72548;BME280;60570;50.848;6.776;2023-07-24T03:19:55;99334.72;;;20.63;61.60
72548;BME280;60570;50.848;6.776;2023-07-24T03:20:57;99344.75;;;20.64;61.17
72548;BME280;60570;50.848;6.776;2023-07-24T03:21:57;99345.19;;;20.63;61.61
72548;BME280;60570;50.848;6.776;2023-07-24T03:22:59;99346.00;;;20.63;60.90
72548;BME280;60570;50.848;6.776;2023-07-24T03:23:59;99344.41;;;20.62;61.39
72548;BME280;60570;50.848;6.776;2023-07-24T03:25:01;99352.84;;;20.62;61.13
72548;BME280;60570;50.848;6.776;2023-07-24T03:26:01;99349.66;;;20.60;61.50
72548;BME280;60570;50.848;6.776;2023-07-24T03:27:03;99340.44;;;20.60;61.32
72548;BME280;60570;50.848;6.776;2023-07-24T03:28:04;99345.28;;;20.59;61.59
72548;BME280;60570;50.848;6.776;2023-07-24T03:29:07;99346.06;;;20.60;61.28
72548;BME280;60570;50.848;6.776;2023-07-24T03:30:07;99340.44;;;20.60;61.40
72548;BME280;60570;50.848;6.776;2023-07-24T03:31:09;99340.06;;;20.58;61.53
72548;BME280;60570;50.848;6.776;2023-07-24T03:32:09;99343.66;;;20.58;61.27
72548;BME280;60570;50.848;6.776;2023-07-24T03:33:11;99344.47;;;20.59;61.11
72548;BME280;60570;50.848;6.776;2023-07-24T03:34:12;99344.91;;;20.57;61.46
72548;BME280;60570;50.848;6.776;2023-07-24T03:35:14;99346.13;;;20.56;61.65
72548;BME280;60570;50.848;6.776;2023-07-24T03:36:14;99337.66;;;20.56;61.38
72548;BME280;60570;50.848;6.776;2023-07-24T03:37:16;99358.22;;;20.57;61.60
72548;BME280;60570;50.848;6.776;2023-07-24T03:38:16;99359.44;;;20.56;61.53
72548;BME280;60570;50.848;6.776;2023-07-24T03:39:18;99355.38;;;20.57;61.38
72548;BME280;60570;50.848;6.776;2023-07-24T03:40:18;99361.84;;;20.57;61.27
72548;BME280;60570;50.848;6.776;2023-07-24T03:41:20;99365.88;;;20.56;61.36
72548;BME280;60570;50.848;6.776;2023-07-24T03:42:24;99361.03;;;20.57;61.51
72548;BME280;60570;50.848;6.776;2023-07-24T03:43:26;99361.84;;;20.57;61.57
72548;BME280;60570;50.848;6.776;2023-07-24T03:44:28;99354.94;;;20.58;61.61
72548;BME280;60570;50.848;6.776;2023-07-24T03:45:30;99359.44;;;20.56;61.58
72548;BME280;60570;50.848;6.776;2023-07-24T03:46:31;99356.63;;;20.56;61.36
72548;BME280;60570;50.848;6.776;2023-07-24T03:47:33;99348.94;;;20.56;61.10
72548;BME280;60570;50.848;6.776;2023-07-24T03:48:33;99344.91;;;20.57;61.21
72548;BME280;60570;50.848;6.776;2023-07-24T03:49:36;99346.13;;;20.56;61.48
72548;BME280;60570;50.848;6.776;2023-07-24T03:50:37;99338.09;;;20.54;61.56
72548;BME280;60570;50.848;6.776;2023-07-24T03:51:38;99331.63;;;20.54;61.53
72548;BME280;60570;50.848;6.776;2023-07-24T03:52:39;99323.16;;;20.54;61.74
72548;BME280;60570;50.848;6.776;2023-07-24T03:53:40;99334.91;;;20.52;61.42
72548;BME280;60570;50.848;6.776;2023-07-24T03:54:41;99324.41;;;20.53;61.76
72548;BME280;60570;50.848;6.776;2023-07-24T03:55:42;99325.22;;;20.53;61.34
72548;BME280;60570;50.848;6.776;2023-07-24T03:56:44;99328.81;;;20.54;61.44
72548;BME280;60570;50.848;6.776;2023-07-24T03:57:44;99332.88;;;20.53;61.60
72548;BME280;60570;50.848;6.776;2023-07-24T03:58:46;99338.53;;;20.53;61.44
72548;BME280;60570;50.848;6.776;2023-07-24T03:59:48;99330.88;;;20.53;61.22
72548;BME280;60570;50.848;6.776;2023-07-24T04:00:49;99325.22;;;20.53;61.27
72548;BME280;60570;50.848;6.776;2023-07-24T04:01:50;99334.91;;;20.52;61.53
72548;BME280;60570;50.848;6.776;2023-07-24T04:02:52;99323.16;;;20.54;61.52
72548;BME280;60570;50.848;6.776;2023-07-24T04:03:52;99326.44;;;20.52;61.40
72548;BME280;60570;50.848;6.776;2023-07-24T04:04:54;99321.59;;;20.53;61.57
72548;BME280;60570;50.848;6.776;2023-07-24T04:05:54;99321.22;;;20.51;61.36
72548;BME280;60570;50.848;6.776;2023-07-24T04:06:56;99323.25;;;20.50;61.58
72548;BME280;60570;50.848;6.776;2023-07-24T04:07:56;99313.97;;;20.50;61.52
72548;BME280;60570;50.848;6.776;2023-07-24T04:08:58;99319.63;;;20.50;61.49
72548;BME280;60570;50.848;6.776;2023-07-24T04:09:59;99320.41;;;20.50;61.53
72548;BME280;60570;50.848;6.776;2023-07-24T04:11:00;99313.59;;;20.48;61.68
72548;BME280;60570;50.848;6.776;2023-07-24T04:12:01;99325.69;;;20.48;61.67
72548;BME280;60570;50.848;6.776;2023-07-24T04:13:02;99323.69;;;20.49;61.61
72548;BME280;60570;50.848;6.776;2023-07-24T04:14:03;99322.06;;;20.48;61.69
72548;BME280;60570;50.848;6.776;2023-07-24T04:15:06;99324.13;;;20.47;61.53
72548;BME280;60570;50.848;6.776;2023-07-24T04:16:07;99325.34;;;20.46;61.89
72548;BME280;60570;50.848;6.776;2023-07-24T04:17:08;99322.06;;;20.48;61.50
72548;BME280;60570;50.848;6.776;2023-07-24T04:18:09;99328.16;;;20.46;61.76
72548;BME280;60570;50.848;6.776;2023-07-24T04:19:11;99320.50;;;20.47;61.93
72548;BME280;60570;50.848;6.776;2023-07-24T04:20:11;99320.94;;;20.45;61.82
72548;BME280;60570;50.848;6.776;2023-07-24T04:21:13;99320.13;;;20.45;61.75
72548;BME280;60570;50.848;6.776;2023-07-24T04:22:14;99317.75;;;20.43;61.66
72548;BME280;60570;50.848;6.776;2023-07-24T04:23:15;99321.38;;;20.44;61.68
72548;BME280;60570;50.848;6.776;2023-07-24T04:24:16;99321.38;;;20.44;61.61
72548;BME280;60570;50.848;6.776;2023-07-24T04:25:17;99321.00;;;20.42;61.76
72548;BME280;60570;50.848;6.776;2023-07-24T04:26:18;99324.19;;;20.44;61.52
72548;BME280;60570;50.848;6.776;2023-07-24T04:27:19;99325.41;;;20.43;61.96
72548;BME280;60570;50.848;6.776;2023-07-24T04:28:20;99318.97;;;20.42;61.90
72548;BME280;60570;50.848;6.776;2023-07-24T04:29:22;99314.91;;;20.43;61.53
72548;BME280;60570;50.848;6.776;2023-07-24T04:30:27;99303.63;;;20.43;61.79
72548;BME280;60570;50.848;6.776;2023-07-24T04:31:28;99303.63;;;20.43;61.79
72548;BME280;60570;50.848;6.776;2023-07-24T04:32:29;99313.31;;;20.42;61.97
72548;BME280;60570;50.848;6.776;2023-07-24T04:33:30;99312.53;;;20.42;62.11
72548;BME280;60570;50.848;6.776;2023-07-24T04:34:31;99316.13;;;20.42;61.71
72548;BME280;60570;50.848;6.776;2023-07-24T04:35:33;99316.94;;;20.43;61.83
72548;BME280;60570;50.848;6.776;2023-07-24T04:36:34;99324.59;;;20.42;61.65
72548;BME280;60570;50.848;6.776;2023-07-24T04:37:35;99334.66;;;20.43;61.73
72548;BME280;60570;50.848;6.776;2023-07-24T04:38:36;99333.44;;;20.44;61.46
72548;BME280;60570;50.848;6.776;2023-07-24T04:39:40;99338.72;;;20.42;61.82
72548;BME280;60570;50.848;6.776;2023-07-24T04:40:43;99339.50;;;20.43;61.82
72548;BME280;60570;50.848;6.776;2023-07-24T04:41:44;99337.94;;;20.42;61.83
72548;BME280;60570;50.848;6.776;2023-07-24T04:42:45;99337.94;;;20.42;61.91
72548;BME280;60570;50.848;6.776;2023-07-24T04:43:46;99335.88;;;20.42;61.84
72548;BME280;60570;50.848;6.776;2023-07-24T04:44:47;99343.56;;;20.42;61.98
72548;BME280;60570;50.848;6.776;2023-07-24T04:45:51;99343.97;;;20.40;62.11
72548;BME280;60570;50.848;6.776;2023-07-24T04:46:52;99352.44;;;20.40;62.16
72548;BME280;60570;50.848;6.776;2023-07-24T04:47:55;99351.66;;;20.40;61.96
72548;BME280;60570;50.848;6.776;2023-07-24T04:48:58;99348.84;;;20.40;62.01
72548;BME280;60570;50.848;6.776;2023-07-24T04:50:00;99352.06;;;20.38;61.94
72548;BME280;60570;50.848;6.776;2023-07-24T04:51:00;99352.88;;;20.39;62.15
72548;BME280;60570;50.848;6.776;2023-07-24T04:52:02;99358.97;;;20.37;62.01
72548;BME280;60570;50.848;6.776;2023-07-24T04:53:03;99356.94;;;20.38;62.07
72548;BME280;60570;50.848;6.776;2023-07-24T04:54:04;99354.53;;;20.36;61.97
72548;BME280;60570;50.848;6.776;2023-07-24T04:55:05;99350.13;;;20.35;61.70
72548;BME280;60570;50.848;6.776;2023-07-24T04:56:07;99350.94;;;20.36;62.14
72548;BME280;60570;50.848;6.776;2023-07-24T04:57:07;99348.13;;;20.36;62.08
72548;BME280;60570;50.848;6.776;2023-07-24T04:58:09;99341.66;;;20.35;61.99
72548;BME280;60570;50.848;6.776;2023-07-24T04:59:09;99347.31;;;20.35;61.89
72548;BME280;60570;50.848;6.776;2023-07-24T05:00:11;99345.28;;;20.36;61.82
72548;BME280;60570;50.848;6.776;2023-07-24T05:01:13;99342.09;;;20.34;61.80
72548;BME280;60570;50.848;6.776;2023-07-24T05:02:15;99350.56;;;20.34;62.00
72548;BME280;60570;50.848;6.776;2023-07-24T05:03:16;99351.34;;;20.34;62.02
72548;BME280;60570;50.848;6.776;2023-07-24T05:04:18;99356.22;;;20.34;61.97
72548;BME280;60570;50.848;6.776;2023-07-24T05:05:18;99350.56;;;20.34;62.08
72548;BME280;60570;50.848;6.776;2023-07-24T05:06:20;99349.75;;;20.33;62.11
72548;BME280;60570;50.848;6.776;2023-07-24T05:07:21;99350.97;;;20.32;61.93
72548;BME280;60570;50.848;6.776;2023-07-24T05:08:22;99348.16;;;20.32;62.09
72548;BME280;60570;50.848;6.776;2023-07-24T05:09:23;99357.84;;;20.31;62.16
72548;BME280;60570;50.848;6.776;2023-07-24T05:10:24;99357.41;;;20.33;61.98
72548;BME280;60570;50.848;6.776;2023-07-24T05:11:25;99354.59;;;20.33;61.87
72548;BME280;60570;50.848;6.776;2023-07-24T05:12:26;99357.84;;;20.31;62.01
72548;BME280;60570;50.848;6.776;2023-07-24T05:13:27;99355.47;;;20.30;62.19
72548;BME280;60570;50.848;6.776;2023-07-24T05:14:28;99359.88;;;20.31;62.56
72548;BME280;60570;50.848;6.776;2023-07-24T05:15:29;99351.84;;;20.29;62.14
72548;BME280;60570;50.848;6.776;2023-07-24T05:16:32;99363.94;;;20.30;62.10
72548;BME280;60570;50.848;6.776;2023-07-24T05:17:32;99364.31;;;20.32;62.10
72548;BME280;60570;50.848;6.776;2023-07-24T05:18:34;99358.66;;;20.32;62.06
72548;BME280;60570;50.848;6.776;2023-07-24T05:19:34;99357.84;;;20.31;62.17
72548;BME280;60570;50.848;6.776;2023-07-24T05:20:36;99360.31;;;20.29;61.94
72548;BME280;60570;50.848;6.776;2023-07-24T05:21:36;99356.28;;;20.30;62.03
72548;BME280;60570;50.848;6.776;2023-07-24T05:22:38;99361.09;;;20.30;61.98
72548;BME280;60570;50.848;6.776;2023-07-24T05:23:38;99367.13;;;20.32;62.17
72548;BME280;60570;50.848;6.776;2023-07-24T05:24:40;99359.09;;;20.30;62.42
72548;BME280;60570;50.848;6.776;2023-07-24T05:25:40;99352.22;;;20.31;62.18